Allison, Texas
Current Conditions -  °F | °C
As of 6:15 AM on Thursday 23 Oct 2014 (Local Time) from KHHF Reporting Station
Broken Clouds Broken Clouds  
Wind Chill: 61°   Ceiling: 1400
Heat Index: 61°   Visibility: 7mi
Dew Point: 60°   Wind: 7mph
Humidity: 96%   Direction: 200°SSW
Pressure: 30.07"   Gusts: NA
Location:  35.61°N, 100.1°W
Report Text: KHHF 231115Z AUTO 20006KT 7SM BKN014 BKN070 16/15 A3007 RMK AO2 T01600153
Loading
Personal Weather Stations






























Interactive Weather Map
Tropical Storm Tracking
New forecast layout! Learn more

10-Day Weather Forecast

Advertisements
Track Severe Weather on mobile